Архив погоды в Кяхте

Метеограмма Кяхта
Вторник, 19 Июня
Время местн. Темп Ветер Видим Явления Облачность нижн/средн/верх Атм. давл. Влжн Точка росы ВНГО R Сост. почвы Tg s
Напр Скр Прв ур.ст ур.м изм
05:00 +10.4° штиль 0 - 50 км - незначительная облачность 692 761 +0.3 58% +2.4° более 2.5 км - - - -
02:00 +13.6° штиль 0 - - - ясно 692 760 -0.2 45% +1.9° более 2.5 км - - - -
Понедельник, 18 Июня
Время местн. Темп Ветер Видим Явления Облачность нижн/средн/верх Атм. давл. Влжн Точка росы ВНГО R Сост. почвы Tg s
Напр Скр Прв ур.ст ур.м изм
23:00 +15.2° штиль 0 - - - ясно 692 760 +1 41% +2° более 2.5 км - - - -
20:00 +22.9° С,С-З 2 - более 50 км - незначительная облачность 691 757 +0.2 23% +0.7° 2.5 км 0 - - -
17:00 +25.6° С-З 2 - более 50 км - переменная облачность 691 756 -0.8 19% +0.2° 1.5 км - - - -
14:00 +24.6° В,С-В 1 - более 50 км - облачно с прояснениями 692 757 -1 24% +2.7° 1.5 км - - - -
11:00 +21° З,С-З 2 - 50 км - переменная облачность 693 759 -0.2 33% +4.1° 1 км - - - -
08:00 +17.4° З,С-З 3 - 50 км - переменная облачность 693 760 +0.5 48% +6.3° - 0 Сухая (без трещин) - -
05:00 +14.7° С-З 2 - 50 км - облачно 693 760 +0.8 52% +4.9° 1 км - - - -
02:00 +14.4° С-З 2 - - - облачно с прояснениями 692 760 +0.2 54% +5.1° - - - - -
Воскресенье, 17 Июня
Время местн. Темп Ветер Видим Явления Облачность нижн/средн/верх Атм. давл. Влжн Точка росы ВНГО R Сост. почвы Tg s
Напр Скр Прв ур.ст ур.м изм
23:00 +15.8° С-З 3 - - - облачно с прояснениями 692 759 +1.1 48% +4.8° 1 км - - - -
20:00 +19.3° С 1 - 50 км - преимущественно облачно 690 757 +0.4 35% +3.4° 1 км 0 - - -
17:00 +20.4° С 3 - 50 км - облачно 690 756 +0.1 35% +4.4° 1 км - - - -
14:00 +22.5° С 3 - более 50 км - облачно 690 756 -0.9 32% +5° 1 км - - - -
11:00 +18.5° С 4 - 50 км - облачно 691 758 +0.2 44% +6° 1 км - - - -
08:00 +16.1° С 3 - 50 км - облачно 691 758 +0.5 59% +8.1° 1.5 км 0 Влажная (без луж) - -
05:00 +14.4° С 2 - 50 км - облачно с прояснениями 690 758 -0.1 63% +7.4° 1 км - - - -
02:00 +15.4° С,С-З 3 - - - облачно 690 758 0 58% +7.2° 1 км - - - -
Суббота, 16 Июня
Время местн. Темп Ветер Видим Явления Облачность нижн/средн/верх Атм. давл. Влжн Точка росы ВНГО R Сост. почвы Tg s
Напр Скр Прв ур.ст ур.м изм
23:00 +16.8° С 3 - - - преимущественно облачно 690 757 +0.7 58% +8.5° 1.5 км - - - -
20:00 +19.9° С,С-В 2 - более 50 км - преимущественно облачно 690 756 +0.4 51% +9.5° 1 км 0 - - -
17:00 +23.2° С 2 - более 50 км - облачно с прояснениями 689 755 -1.1 39% +8.5° 1 км - - - -
14:00 +20.7° С 2 - более 50 км - облачно с прояснениями 690 756 -0.9 49% +9.6° 1 км - - - -
11:00 +17.9° С 2 - 50 км - облачно 691 758 +0.8 59% +9.8° 1 км - - - -
08:00 +15.6° С 2 - более 50 км - облачно 690 758 +1.1 68% +9.7° 1 км 0 Влажная (без луж) +11° -
05:00 +13.9° С 1 - более 50 км - облачно 689 757 +0.3 81% +10.7° 2.5 км - - - -
02:00 +13.4° штиль 0 - - - облачно 689 757 +0.6 82% +10.4° более 2.5 км - - - -